Time;durP1;ratioP1;P1;durP2;ratioP2;P2;SDS_P1;SDS_P2;PMS_P1;PMS_P2;Temp;Humidity;BMP_temperature;BMP_pressure;BME280_temperature;BME280_humidity;BME280_pressure;Samples;Min_cycle;Max_cycle;Signal;HPM_P1;HPM_P2
2021/01/21 00:01:03;;;;;;;4.00;0.77;;;;;;;6.92;48.41;98841.13;5049344;28;20028;-71
2021/01/21 00:03:28;;;;;;;2.85;0.30;;;;;;;7.43;47.06;98843.38;5053434;28;20024;-71
2021/01/21 00:05:54;;;;;;;8.57;0.75;;;;;;;7.37;47.16;98830.75;5067448;28;20044;-71
2021/01/21 00:08:19;;;;;;;1.23;0.40;;;;;;;6.69;48.98;98837.25;5050960;28;20044;-71
2021/01/21 00:10:45;;;;;;;5.05;0.60;;;;;;;7.22;47.47;98820.34;5065975;28;20028;-71
2021/01/21 00:13:10;;;;;;;2.25;0.52;;;;;;;6.80;48.43;98813.28;5071178;28;20044;-72
2021/01/21 00:15:36;;;;;;;2.60;0.40;;;;;;;7.09;48.01;98816.78;5048170;28;20462;-71
2021/01/21 00:18:01;;;;;;;4.10;0.50;;;;;;;7.61;46.59;98800.72;5068601;28;20043;-71
2021/01/21 00:20:27;;;;;;;2.95;0.38;;;;;;;6.92;48.12;98789.19;5049345;28;20040;-71
2021/01/21 00:22:53;;;;;;;4.25;1.05;;;;;;;7.26;47.27;98788.03;5047691;28;20052;-71
2021/01/21 00:25:19;;;;;;;6.22;1.17;;;;;;;6.77;48.72;98793.47;5051615;28;20499;-71
2021/01/21 00:27:44;;;;;;;4.15;0.65;;;;;;;6.86;47.98;98781.72;5066713;28;20047;-71
2021/01/21 00:30:10;;;;;;;1.85;0.40;;;;;;;7.26;47.20;98784.59;5069386;28;20092;-71
2021/01/21 00:32:39;;;;;;;5.40;0.75;;;;;;;7.56;46.52;98770.69;5047924;28;20024;-70
2021/01/21 00:35:06;;;;;;;7.00;0.70;;;;;;;7.47;46.69;98756.50;5069024;28;20044;-71
2021/01/21 00:37:32;;;;;;;5.20;0.60;;;;;;;7.74;45.80;98749.63;5034249;28;20049;-70
2021/01/21 00:39:57;;;;;;;1.58;0.30;;;;;;;7.67;45.99;98763.94;5055960;28;20051;-71
2021/01/21 00:42:24;;;;;;;1.80;0.57;;;;;;;7.53;46.23;98745.69;5068962;28;20042;-71
2021/01/21 00:44:49;;;;;;;1.85;0.85;;;;;;;7.75;45.72;98740.03;5049970;28;20067;-70
2021/01/21 00:47:15;;;;;;;2.08;0.40;;;;;;;7.63;46.06;98751.22;5052499;28;20025;-71
2021/01/21 00:49:41;;;;;;;5.30;0.60;;;;;;;7.98;44.93;98736.03;5052537;28;20032;-71
2021/01/21 00:52:07;;;;;;;2.17;0.40;;;;;;;7.50;46.03;98719.91;5050674;28;20052;-71
2021/01/21 00:54:34;;;;;;;2.83;0.40;;;;;;;7.73;45.70;98711.56;5048344;28;20075;-71
2021/01/21 00:57:00;;;;;;;2.90;0.40;;;;;;;7.93;45.20;98717.25;5035581;28;20436;-71
2021/01/21 00:59:26;;;;;;;2.55;0.75;;;;;;;7.38;46.55;98715.44;5065557;28;20035;-72
2021/01/21 01:01:51;;;;;;;3.67;0.30;;;;;;;7.50;46.72;98715.53;5029559;28;20043;-71
2021/01/21 01:04:18;;;;;;;1.08;0.38;;;;;;;7.61;46.04;98712.31;5038252;28;20111;-71
2021/01/21 01:06:44;;;;;;;0.68;0.22;;;;;;;7.54;46.22;98703.19;5032977;28;20036;-71
2021/01/21 01:09:09;;;;;;;2.60;0.45;;;;;;;7.82;45.69;98688.50;5052692;28;20039;-71
2021/01/21 01:11:35;;;;;;;3.17;0.43;;;;;;;7.36;46.56;98676.56;5031524;28;20051;-71
2021/01/21 01:14:01;;;;;;;6.72;0.70;;;;;;;7.37;46.92;98677.41;5068632;28;20020;-71
2021/01/21 01:16:27;;;;;;;3.60;0.30;;;;;;;7.98;45.53;98673.59;5053982;28;20070;-71
2021/01/21 01:19:02;;;;;;;2.70;0.38;;;;;;;7.21;46.50;98657.56;5054689;28;20058;-71
2021/01/21 01:21:28;;;;;;;3.88;0.95;;;;;;;7.79;45.78;98658.31;5049677;28;20037;-71
2021/01/21 01:23:54;;;;;;;2.58;0.47;;;;;;;6.88;47.03;98640.50;5055921;28;20051;-71
2021/01/21 01:26:22;;;;;;;3.70;0.38;;;;;;;7.15;46.87;98636.31;5037340;28;20566;-71
2021/01/21 01:28:51;;;;;;;1.58;0.40;;;;;;;7.47;46.04;98637.75;5048899;28;20061;-71
2021/01/21 01:31:17;;;;;;;2.97;0.40;;;;;;;7.43;46.31;98625.06;5036688;28;20025;-71
2021/01/21 01:33:43;;;;;;;4.00;0.60;;;;;;;8.08;44.75;98622.63;5063763;28;20039;-72
2021/01/21 01:36:09;;;;;;;5.38;0.60;;;;;;;7.41;46.61;98619.13;5044948;28;20067;-71
2021/01/21 01:38:35;;;;;;;2.40;0.50;;;;;;;7.50;46.31;98624.56;5045196;28;20032;-71
2021/01/21 01:41:20;;;;;;;3.40;0.30;;;;;;;6.84;47.81;98612.19;5067149;28;20128;-71
2021/01/21 01:43:48;;;;;;;0.95;0.40;;;;;;;7.91;45.41;98607.28;5063306;28;20075;-71
2021/01/21 01:46:15;;;;;;;3.97;0.45;;;;;;;7.69;45.58;98595.66;5052183;28;20062;-71
2021/01/21 01:48:41;;;;;;;1.20;0.30;;;;;;;7.83;45.11;98601.75;5033721;28;20037;-72
2021/01/21 01:51:06;;;;;;;2.42;0.30;;;;;;;7.36;45.88;98582.19;5033947;28;20033;-71
2021/01/21 01:53:37;;;;;;;4.80;0.50;;;;;;;7.68;45.54;98580.16;5047132;28;20059;-71
2021/01/21 01:56:11;;;;;;;3.33;0.40;;;;;;;7.28;46.49;98577.47;5050841;28;20028;-72
2021/01/21 01:58:57;;;;;;;2.25;0.40;;;;;;;7.08;46.75;98556.16;5066988;28;20120;-71
2021/01/21 02:01:35;;;;;;;6.43;0.73;;;;;;;7.27;45.95;98550.66;5045757;28;20108;-71
2021/01/21 02:04:05;;;;;;;1.35;0.32;;;;;;;7.32;46.23;98556.38;5031546;28;20037;-71
2021/01/21 02:06:49;;;;;;;3.25;0.40;;;;;;;7.61;45.29;98548.53;5067077;28;20050;-71
2021/01/21 02:09:15;;;;;;;0.88;0.32;;;;;;;7.09;46.43;98544.03;5050623;28;20028;-71
2021/01/21 02:12:13;;;;;;;0.85;0.50;;;;;;;7.56;45.78;98542.78;5069379;28;20041;-71
2021/01/21 02:15:03;;;;;;;0.77;0.20;;;;;;;7.39;45.82;98523.03;5051357;28;20123;-71
2021/01/21 02:18:02;;;;;;;4.47;0.40;;;;;;;7.63;45.33;98520.66;5050465;28;20041;-71
2021/01/21 02:21:25;;;;;;;4.97;1.30;;;;;;;7.11;46.41;98522.22;5038573;28;20044;-70
2021/01/21 02:24:12;;;;;;;2.40;0.38;;;;;;;7.31;45.80;98494.97;4952627;28;20364;-71
2021/01/21 02:26:50;;;;;;;1.52;0.43;;;;;;;7.16;46.50;98485.56;4970918;28;20138;-71
2021/01/21 02:29:20;;;;;;;2.35;0.40;;;;;;;7.11;46.46;98490.22;5040473;28;20375;-71
2021/01/21 02:32:06;;;;;;;4.13;0.70;;;;;;;7.23;46.02;98467.81;5050593;28;20086;-71
2021/01/21 02:35:02;;;;;;;3.85;0.30;;;;;;;7.57;45.57;98470.84;5056342;28;20072;-71
2021/01/21 02:37:30;;;;;;;5.68;0.63;;;;;;;7.36;45.77;98462.66;5038882;28;20035;-70
2021/01/21 02:40:01;;;;;;;2.15;0.28;;;;;;;7.36;45.90;98457.47;5057939;28;20032;-71
2021/01/21 02:42:46;;;;;;;3.15;0.38;;;;;;;7.15;46.22;98442.31;5052388;28;20036;-71
2021/01/21 02:45:16;;;;;;;3.58;0.20;;;;;;;7.11;46.52;98438.25;5047696;28;20029;-71
2021/01/21 02:47:46;;;;;;;0.90;0.30;;;;;;;7.18;46.13;98428.31;5069782;28;20040;-71
2021/01/21 02:50:12;;;;;;;3.65;0.50;;;;;;;7.02;46.29;98428.44;5050577;28;20118;-71
2021/01/21 02:52:53;;;;;;;2.35;0.20;;;;;;;7.06;46.32;98411.72;5047896;28;20086;-71
2021/01/21 02:55:26;;;;;;;0.68;0.20;;;;;;;7.16;46.11;98394.63;5049652;28;20029;-71
2021/01/21 02:58:24;;;;;;;4.13;0.30;;;;;;;7.27;45.96;98386.97;5048058;28;20032;-71
2021/01/21 03:00:53;;;;;;;0.95;0.25;;;;;;;6.89;46.61;98385.09;5053296;28;20428;-71
2021/01/21 03:03:26;;;;;;;1.48;0.30;;;;;;;7.67;44.91;98376.53;5051488;28;20031;-71
2021/01/21 03:05:57;;;;;;;1.27;0.20;;;;;;;7.11;46.27;98365.53;5069479;28;20067;-70
2021/01/21 03:08:26;;;;;;;1.67;0.40;;;;;;;7.21;45.83;98371.78;5051230;28;20033;-71
2021/01/21 03:11:12;;;;;;;4.03;0.40;;;;;;;7.06;46.14;98357.19;5037378;28;20051;-71
2021/01/21 03:13:45;;;;;;;1.48;0.30;;;;;;;7.19;45.82;98352.84;5030054;28;20064;-71
2021/01/21 03:16:12;;;;;;;2.75;0.30;;;;;;;7.13;46.02;98348.06;5051558;28;20033;-71
2021/01/21 03:18:39;;;;;;;3.22;0.50;;;;;;;7.35;45.63;98336.25;5049682;28;20047;-71
2021/01/21 03:21:07;;;;;;;1.27;0.28;;;;;;;7.24;45.76;98344.75;5048528;28;20048;-71
2021/01/21 03:23:44;;;;;;;0.65;0.22;;;;;;;7.02;46.05;98328.00;5034626;28;20048;-71
2021/01/21 03:26:17;;;;;;;2.08;0.30;;;;;;;6.94;46.06;98319.88;5033563;28;20123;-71
2021/01/21 03:28:54;;;;;;;5.85;0.60;;;;;;;7.19;45.77;98313.06;5037973;28;20064;-71
2021/01/21 03:31:20;;;;;;;1.77;0.63;;;;;;;7.17;45.44;98312.31;5052154;28;20037;-71
2021/01/21 03:33:45;;;;;;;1.08;0.38;;;;;;;7.32;45.14;98314.72;5069118;28;20032;-71
2021/01/21 03:36:11;;;;;;;2.28;0.70;;;;;;;6.85;46.56;98307.50;5033997;28;20021;-71
2021/01/21 03:38:37;;;;;;;2.47;0.60;;;;;;;7.16;45.68;98301.13;5029674;28;20079;-71
2021/01/21 03:41:21;;;;;;;3.60;0.30;;;;;;;7.33;45.38;98290.44;5071124;28;20571;-71
2021/01/21 03:43:58;;;;;;;1.02;0.40;;;;;;;7.36;45.58;98293.75;5038802;28;20047;-71
2021/01/21 03:46:27;;;;;;;1.30;0.50;;;;;;;7.23;45.51;98296.34;5050889;28;20028;-71
2021/01/21 03:48:54;;;;;;;1.60;0.20;;;;;;;7.15;45.50;98281.25;5049488;28;20031;-71
2021/01/21 03:51:38;;;;;;;1.35;0.30;;;;;;;7.29;45.19;98283.78;5054504;28;20130;-71
2021/01/21 03:54:26;;;;;;;1.85;0.22;;;;;;;7.14;45.55;98277.00;5054977;28;20032;-71
2021/01/21 03:56:52;;;;;;;2.03;0.38;;;;;;;7.28;45.25;98274.28;5036195;28;20062;-71
2021/01/21 03:59:20;;;;;;;0.88;0.32;;;;;;;7.50;44.96;98273.66;5049888;28;20040;-71
2021/01/21 04:01:52;;;;;;;1.65;0.63;;;;;;;6.91;46.19;98260.38;5036007;28;20021;-70
2021/01/21 04:04:19;;;;;;;5.10;0.17;;;;;;;7.15;45.64;98255.28;5036727;28;20039;-71
2021/01/21 04:06:44;;;;;;;1.35;0.40;;;;;;;7.26;44.99;98239.78;5035753;28;20029;-71
2021/01/21 04:09:15;;;;;;;0.70;0.20;;;;;;;7.25;45.36;98238.13;5037293;28;20032;-71
2021/01/21 04:11:58;;;;;;;1.45;0.25;;;;;;;7.40;45.03;98243.22;5034414;28;20063;-71
2021/01/21 04:14:24;;;;;;;1.83;0.40;;;;;;;7.43;44.67;98228.25;5034736;28;20055;-71
2021/01/21 04:16:49;;;;;;;4.38;0.52;;;;;;;7.33;44.94;98220.25;5045519;28;20875;-71
2021/01/21 04:19:15;;;;;;;1.85;0.40;;;;;;;7.86;43.73;98211.44;5037719;28;20039;-72
2021/01/21 04:21:47;;;;;;;2.95;0.30;;;;;;;7.63;44.32;98221.69;5049401;28;20028;-71
2021/01/21 04:24:18;;;;;;;2.47;0.20;;;;;;;7.20;45.32;98205.59;5038763;28;20491;-71
2021/01/21 04:26:48;;;;;;;1.73;0.40;;;;;;;8.02;43.43;98196.38;5035169;28;20039;-71
2021/01/21 04:29:17;;;;;;;1.15;0.40;;;;;;;7.30;45.09;98188.47;5050023;28;20355;-72
2021/01/21 04:31:49;;;;;;;2.00;0.30;;;;;;;7.63;43.99;98184.47;5048002;28;20021;-72
2021/01/21 04:34:19;;;;;;;0.65;0.28;;;;;;;6.75;46.20;98174.03;5049892;28;20024;-71
2021/01/21 04:36:45;;;;;;;2.95;0.25;;;;;;;7.93;43.64;98178.84;5046895;28;20052;-71
2021/01/21 04:39:13;;;;;;;3.85;0.30;;;;;;;7.06;45.56;98185.78;5048946;28;20036;-71
2021/01/21 04:41:42;;;;;;;1.38;0.30;;;;;;;7.32;44.20;98187.41;5046624;28;20025;-70
2021/01/21 04:44:18;;;;;;;1.70;0.20;;;;;;;7.86;43.87;98175.84;5051036;28;20032;-71
2021/01/21 04:47:05;;;;;;;1.15;0.30;;;;;;;7.82;43.71;98178.78;5067504;28;20032;-71
2021/01/21 04:49:47;;;;;;;1.20;0.17;;;;;;;8.00;43.39;98174.84;5047244;28;20107;-71
2021/01/21 04:52:17;;;;;;;0.77;0.20;;;;;;;7.93;43.63;98155.44;5047588;28;20021;-71
2021/01/21 04:54:50;;;;;;;0.90;0.20;;;;;;;7.50;44.17;98148.91;5043122;28;20041;-71
2021/01/21 04:57:30;;;;;;;1.20;0.20;;;;;;;7.84;44.02;98140.50;5067342;28;20033;-71
2021/01/21 05:00:05;;;;;;;0.85;0.15;;;;;;;8.13;43.21;98131.41;5046482;28;20037;-71
2021/01/21 05:02:50;;;;;;;0.98;0.22;;;;;;;8.32;42.70;98098.84;5064335;28;20029;-71
2021/01/21 05:05:47;;;;;;;2.20;0.28;;;;;;;8.39;42.78;98123.44;5043808;28;20040;-71
2021/01/21 05:08:15;;;;;;;0.63;0.20;;;;;;;7.73;43.86;98095.31;5047878;28;20028;-70
2021/01/21 05:11:00;;;;;;;0.68;0.20;;;;;;;8.21;43.53;98123.03;5048136;28;20031;-71
2021/01/21 05:13:35;;;;;;;3.17;0.22;;;;;;;8.74;42.18;98117.41;5048336;28;20025;-72
2021/01/21 05:16:19;;;;;;;3.40;0.20;;;;;;;8.19;43.44;98103.28;5066081;28;20461;-71
2021/01/21 05:19:05;;;;;;;0.75;0.40;;;;;;;8.17;43.68;98110.38;5034624;28;20127;-71
2021/01/21 05:22:12;;;;;;;0.50;0.20;;;;;;;7.97;44.68;98110.06;4982502;28;20077;-70
2021/01/21 05:24:55;;;;;;;0.73;0.40;;;;;;;7.72;46.89;98095.44;4993173;28;20030;-71
2021/01/21 05:27:41;;;;;;;2.45;0.20;;;;;;;7.79;47.76;98095.81;5034322;28;20048;-71
2021/01/21 05:30:21;;;;;;;2.55;0.40;;;;;;;7.62;47.68;98105.63;5064906;28;20581;-71
2021/01/21 05:32:47;;;;;;;1.10;0.17;;;;;;;7.50;47.98;98091.72;5066163;28;20070;-71
2021/01/21 05:35:30;;;;;;;4.30;0.20;;;;;;;7.20;48.28;98079.16;5037103;28;20032;-72
2021/01/21 05:37:59;;;;;;;1.00;0.10;;;;;;;7.37;47.86;98079.72;5049342;28;20421;-71
2021/01/21 05:40:46;;;;;;;0.30;0.15;;;;;;;7.95;46.84;98063.34;5061662;28;20084;-70
2021/01/21 05:43:35;;;;;;;0.47;0.10;;;;;;;7.83;46.53;98050.44;5032758;28;20040;-71
2021/01/21 05:46:09;;;;;;;2.28;0.17;;;;;;;7.84;46.59;98071.13;5050392;28;20059;-71
2021/01/21 05:48:35;;;;;;;4.18;0.40;;;;;;;8.13;46.14;98068.97;5033139;28;20048;-70
2021/01/21 05:51:05;;;;;;;1.45;0.10;;;;;;;7.95;46.14;98075.53;5036608;28;20646;-71
2021/01/21 05:53:31;;;;;;;6.30;0.40;;;;;;;8.15;45.93;98082.69;5037041;28;20561;-71
2021/01/21 05:56:00;;;;;;;0.60;0.20;;;;;;;7.66;47.21;98090.66;5054160;28;20071;-70
2021/01/21 05:58:39;;;;;;;1.60;0.22;;;;;;;7.63;47.97;98075.31;5036570;28;20037;-70
2021/01/21 06:01:06;;;;;;;1.58;0.20;;;;;;;8.37;46.94;98101.91;5050571;28;20025;-71
2021/01/21 06:03:41;;;;;;;1.25;0.20;;;;;;;7.30;49.36;98108.72;5029083;28;20035;-70
2021/01/21 06:06:25;;;;;;;2.25;0.10;;;;;;;6.56;54.11;98170.06;5035776;28;20048;-71
2021/01/21 06:08:51;;;;;;;7.20;0.10;;;;;;;4.89;54.61;98243.50;5046121;28;20037;-71
2021/01/21 06:11:19;;;;;;;2.05;0.00;;;;;;;4.69;54.43;98254.97;5048992;28;20036;-71
2021/01/21 06:13:44;;;;;;;0.30;0.00;;;;;;;4.63;50.64;98271.69;5049486;28;20107;-71
2021/01/21 06:16:13;;;;;;;1.13;0.08;;;;;;;4.65;49.12;98240.53;5061606;28;20765;-71
2021/01/21 06:18:39;;;;;;;2.95;0.10;;;;;;;4.71;50.19;98268.66;5044599;28;20043;-71
2021/01/21 06:21:22;;;;;;;2.63;0.50;;;;;;;4.16;51.18;98261.41;5037375;28;20040;-71
2021/01/21 06:24:05;;;;;;;0.65;0.55;;;;;;;4.09;51.63;98304.03;5048369;28;20235;-72
2021/01/21 06:26:46;;;;;;;1.33;0.10;;;;;;;4.22;51.12;98305.84;5049786;28;20056;-71
2021/01/21 06:29:17;;;;;;;0.80;0.00;;;;;;;4.33;51.09;98294.94;5045812;28;20037;-71
2021/01/21 06:31:44;;;;;;;0.93;0.10;;;;;;;3.86;52.88;98308.69;5049829;28;20129;-70
2021/01/21 06:34:23;;;;;;;0.17;0.08;;;;;;;4.64;51.61;98316.50;5055036;28;20041;-71
2021/01/21 06:37:14;;;;;;;0.82;0.20;;;;;;;4.45;53.32;98323.63;5057989;28;20028;-72
2021/01/21 06:39:50;;;;;;;2.38;0.00;;;;;;;4.14;54.11;98325.28;5054691;28;20681;-71
2021/01/21 06:42:17;;;;;;;3.75;0.38;;;;;;;4.37;53.32;98324.06;5049337;28;20032;-71
2021/01/21 06:44:43;;;;;;;5.47;0.20;;;;;;;4.15;53.58;98332.16;5035487;28;20072;-71
2021/01/21 06:47:09;;;;;;;0.90;0.00;;;;;;;3.78;55.17;98352.16;5052047;28;20029;-71
2021/01/21 06:49:37;;;;;;;1.20;0.10;;;;;;;4.32;53.70;98341.56;5050423;28;20047;-71
2021/01/21 06:52:04;;;;;;;3.35;0.35;;;;;;;3.43;55.26;98356.59;5044684;28;20036;-71
2021/01/21 06:54:31;;;;;;;2.22;0.00;;;;;;;3.80;55.15;98368.44;5032784;28;20046;-70
2021/01/21 06:56:56;;;;;;;0.40;0.00;;;;;;;3.31;55.89;98394.16;5032709;28;20040;-70
2021/01/21 06:59:52;;;;;;;1.73;0.38;;;;;;;3.58;55.35;98387.63;5067738;28;20021;-70
2021/01/21 07:02:40;;;;;;;7.55;0.10;;;;;;;3.56;55.63;98404.09;5064938;28;20047;-71
2021/01/21 07:05:13;;;;;;;2.78;0.10;;;;;;;3.49;56.71;98424.25;5050719;28;20120;-69
2021/01/21 07:08:11;;;;;;;2.78;0.15;;;;;;;3.12;57.61;98413.13;5065682;28;20048;-70
2021/01/21 07:10:48;;;;;;;1.13;0.28;;;;;;;3.23;57.44;98427.25;4996411;28;20043;-70
2021/01/21 07:13:16;;;;;;;3.17;0.30;;;;;;;3.63;56.09;98451.13;5051524;28;20046;-70
2021/01/21 07:15:48;;;;;;;0.85;0.35;;;;;;;3.01;56.64;98467.00;5039918;28;20028;-71
2021/01/21 07:18:30;;;;;;;2.92;0.30;;;;;;;3.29;56.33;98465.69;5035003;28;20123;-71
2021/01/21 07:21:16;;;;;;;0.85;0.03;;;;;;;3.61;54.62;98469.31;5040153;28;20134;-71
2021/01/21 07:23:52;;;;;;;4.05;0.10;;;;;;;4.04;53.42;98467.13;5064396;28;20062;-72
2021/01/21 07:26:42;;;;;;;1.58;0.10;;;;;;;3.82;53.90;98482.06;5063261;28;20028;-70
2021/01/21 07:29:10;;;;;;;0.95;0.22;;;;;;;3.29;54.91;98473.44;5061731;28;20029;-71
2021/01/21 07:31:55;;;;;;;1.90;0.50;;;;;;;2.87;54.47;98508.94;5055297;28;20028;-71
2021/01/21 07:34:28;;;;;;;4.85;0.20;;;;;;;4.02;51.84;98495.63;5027516;28;20049;-71
2021/01/21 07:37:06;;;;;;;1.35;0.30;;;;;;;3.27;53.51;98508.78;5036422;28;20028;-72
2021/01/21 07:39:48;;;;;;;1.52;0.30;;;;;;;2.38;53.21;98490.50;5050530;28;20036;-72
2021/01/21 07:42:14;;;;;;;7.70;0.30;;;;;;;3.18;51.78;98528.16;5055644;28;20497;-71
2021/01/21 07:44:57;;;;;;;2.58;0.10;;;;;;;2.88;51.99;98512.34;5063320;28;20040;-71
2021/01/21 07:47:31;;;;;;;2.58;0.30;;;;;;;2.98;51.48;98535.06;5048410;28;20032;-71
2021/01/21 07:50:33;;;;;;;4.05;0.30;;;;;;;3.61;49.09;98535.63;5061037;28;20383;-71
2021/01/21 07:53:00;;;;;;;3.75;0.38;;;;;;;3.04;50.72;98570.06;5062790;28;20064;-71
2021/01/21 07:55:36;;;;;;;0.75;0.10;;;;;;;3.08;50.71;98574.19;5045216;28;20102;-71
2021/01/21 07:58:16;;;;;;;2.25;0.20;;;;;;;2.64;50.75;98583.91;5049910;28;20038;-70
2021/01/21 08:00:43;;;;;;;1.00;0.20;;;;;;;3.03;49.44;98581.31;5046473;28;20089;-71
2021/01/21 08:03:09;;;;;;;2.50;0.15;;;;;;;3.27;49.56;98591.41;5045969;28;20047;-71
2021/01/21 08:05:35;;;;;;;4.60;0.00;;;;;;;3.36;49.25;98586.69;5049234;28;20054;-70
2021/01/21 08:08:03;;;;;;;2.35;0.10;;;;;;;2.71;50.77;98596.50;5062798;28;20044;-70
2021/01/21 08:10:37;;;;;;;5.85;0.43;;;;;;;3.23;49.75;98603.63;5065766;28;20493;-71
2021/01/21 08:13:05;;;;;;;4.32;0.10;;;;;;;3.43;48.53;98589.84;5051512;28;20033;-70
2021/01/21 08:15:32;;;;;;;3.78;0.20;;;;;;;2.83;49.97;98612.34;5048114;28;20109;-72
2021/01/21 08:17:59;;;;;;;0.43;0.00;;;;;;;2.81;49.54;98606.41;5064723;28;20427;-70
2021/01/21 08:20:27;;;;;;;0.75;0.10;;;;;;;2.31;49.95;98608.53;5061925;28;20029;-71
2021/01/21 08:23:03;;;;;;;11.85;0.47;;;;;;;3.08;48.58;98623.22;5064063;28;20029;-70
2021/01/21 08:25:31;;;;;;;8.23;0.30;;;;;;;3.24;48.06;98614.78;5045846;28;20037;-71
2021/01/21 08:27:58;;;;;;;7.22;0.20;;;;;;;2.98;47.75;98612.50;5032240;28;20071;-71
2021/01/21 08:30:25;;;;;;;5.18;0.17;;;;;;;3.65;46.90;98622.38;5063194;28;20036;-71
2021/01/21 08:32:57;;;;;;;0.80;0.30;;;;;;;3.70;46.60;98641.94;5046729;28;20058;-70
2021/01/21 08:35:25;;;;;;;4.45;0.10;;;;;;;4.34;44.86;98643.16;5061348;28;20033;-71
2021/01/21 08:37:53;;;;;;;5.50;0.20;;;;;;;4.21;45.72;98640.34;5061968;28;20048;-71
2021/01/21 08:40:20;;;;;;;2.92;0.30;;;;;;;4.12;45.85;98650.28;5030049;28;20043;-71
2021/01/21 08:42:51;;;;;;;2.35;0.20;;;;;;;5.19;43.89;98652.63;5033835;28;20025;-70
2021/01/21 08:45:19;;;;;;;1.90;0.10;;;;;;;3.85;47.23;98655.88;5041075;28;20037;-70
2021/01/21 08:47:47;;;;;;;6.78;0.30;;;;;;;4.45;46.56;98671.06;5047023;28;20410;-70
2021/01/21 08:50:15;;;;;;;2.70;0.15;;;;;;;4.33;46.62;98669.91;5061359;28;20040;-70
2021/01/21 08:53:02;;;;;;;8.40;0.35;;;;;;;3.52;49.03;98687.53;5041867;28;20166;-70
2021/01/21 08:55:40;;;;;;;2.38;0.60;;;;;;;3.38;49.67;98669.25;5060486;28;20123;-71
2021/01/21 08:58:07;;;;;;;4.05;0.20;;;;;;;3.93;47.55;98681.34;5044834;28;20091;-71
2021/01/21 09:00:33;;;;;;;2.85;0.45;;;;;;;3.84;48.06;98669.69;5063295;28;20040;-71
2021/01/21 09:03:00;;;;;;;5.25;0.68;;;;;;;3.37;48.70;98677.91;5066558;28;20024;-70
2021/01/21 09:05:26;;;;;;;2.53;0.10;;;;;;;3.91;47.24;98672.84;5042267;28;20024;-70
2021/01/21 09:08:01;;;;;;;7.85;0.65;;;;;;;4.51;46.66;98698.38;5045393;28;20081;-70
2021/01/21 09:10:35;;;;;;;4.50;0.47;;;;;;;4.10;46.71;98688.31;5047200;28;20483;-71
2021/01/21 09:13:02;;;;;;;6.72;0.40;;;;;;;5.03;44.62;98696.63;5065066;28;20033;-71
2021/01/21 09:15:27;;;;;;;2.47;0.10;;;;;;;4.91;45.29;98707.59;5048550;28;20036;-71
2021/01/21 09:18:06;;;;;;;3.00;0.10;;;;;;;4.96;44.53;98704.75;5064741;28;20033;-70
2021/01/21 09:20:32;;;;;;;3.35;0.20;;;;;;;5.26;44.07;98715.31;5064415;28;20044;-71
2021/01/21 09:23:18;;;;;;;2.22;0.25;;;;;;;4.66;45.04;98718.31;5045276;28;20398;-71
2021/01/21 09:25:45;;;;;;;2.58;0.63;;;;;;;4.19;45.41;98719.72;5041092;28;20029;-70
2021/01/21 09:28:12;;;;;;;2.17;0.40;;;;;;;4.40;44.60;98681.63;5031083;28;20047;-70
2021/01/21 09:30:38;;;;;;;1.85;0.10;;;;;;;5.20;43.42;98733.75;5045295;28;20065;-70
2021/01/21 09:33:04;;;;;;;2.17;0.20;;;;;;;3.91;45.52;98732.28;5060695;28;20123;-70
2021/01/21 09:35:29;;;;;;;4.75;1.90;;;;;;;5.19;43.35;98729.47;5061795;28;20040;-71
2021/01/21 09:37:57;;;;;;;10.63;0.35;;;;;;;4.93;43.50;98725.66;5042844;28;20043;-70
2021/01/21 09:40:31;;;;;;;2.45;0.35;;;;;;;5.65;42.35;98735.66;5055994;28;20040;-71
2021/01/21 09:42:59;;;;;;;1.90;0.50;;;;;;;4.27;44.47;98754.72;5046505;28;20044;-70
2021/01/21 09:45:26;;;;;;;3.10;0.25;;;;;;;5.37;43.40;98748.38;5041601;28;20036;-71
2021/01/21 09:47:52;;;;;;;5.00;0.63;;;;;;;4.84;43.54;98742.44;5062733;28;20040;-71
2021/01/21 09:50:19;;;;;;;8.02;0.73;;;;;;;4.43;44.59;98753.06;5041223;28;20032;-70
2021/01/21 09:52:45;;;;;;;3.45;1.00;;;;;;;4.32;45.10;98758.78;5062412;28;20028;-70
2021/01/21 09:55:11;;;;;;;3.60;0.38;;;;;;;4.48;45.58;98747.69;5062454;28;20123;-71
2021/01/21 09:57:39;;;;;;;7.95;0.50;;;;;;;4.20;45.04;98749.00;5048267;28;20033;-71
2021/01/21 10:00:06;;;;;;;3.33;0.30;;;;;;;4.80;44.53;98759.88;5032089;28;20477;-70
2021/01/21 10:02:37;;;;;;;7.65;0.40;;;;;;;4.54;44.96;98770.66;5061308;28;20036;-69
2021/01/21 10:05:04;;;;;;;3.03;0.65;;;;;;;5.15;44.00;98757.28;5028086;28;20392;-71
2021/01/21 10:07:30;;;;;;;6.45;0.55;;;;;;;4.71;44.70;98762.09;5059702;28;20064;-71
2021/01/21 10:09:55;;;;;;;5.28;0.55;;;;;;;5.02;43.80;98777.78;5059899;28;20064;-71
2021/01/21 10:12:21;;;;;;;3.35;0.13;;;;;;;4.77;44.36;98756.59;5026319;28;20047;-70
2021/01/21 10:14:47;;;;;;;0.93;0.32;;;;;;;4.83;43.74;98775.25;5041935;28;20068;-71
2021/01/21 10:17:12;;;;;;;4.43;1.10;;;;;;;4.68;44.72;98783.78;5029667;28;20036;-72
2021/01/21 10:19:38;;;;;;;5.90;0.93;;;;;;;4.52;44.56;98788.00;5060223;28;20333;-71
2021/01/21 10:22:07;;;;;;;12.18;2.60;;;;;;;4.21;43.98;98781.72;5042538;28;20130;-71
2021/01/21 10:24:34;;;;;;;5.95;0.43;;;;;;;5.46;42.24;98784.22;5057344;28;20061;-71
2021/01/21 10:27:00;;;;;;;4.63;0.43;;;;;;;5.43;42.03;98786.94;5043643;28;20048;-71
2021/01/21 10:29:26;;;;;;;2.95;0.15;;;;;;;5.54;41.33;98784.63;5041424;28;20048;-71
2021/01/21 10:31:51;;;;;;;3.00;0.20;;;;;;;5.60;42.01;98789.50;5031144;28;20097;-71
2021/01/21 10:34:17;;;;;;;3.40;0.20;;;;;;;5.47;42.12;98793.63;5047267;28;20036;-71
2021/01/21 10:36:43;;;;;;;3.55;0.40;;;;;;;4.81;43.06;98799.53;5061141;28;20037;-72
2021/01/21 10:39:08;;;;;;;5.70;1.02;;;;;;;5.25;42.73;98797.31;5046182;28;20032;-72
2021/01/21 10:41:34;;;;;;;6.72;0.22;;;;;;;4.79;42.95;98775.50;5064828;28;20052;-71
2021/01/21 10:43:59;;;;;;;1.73;0.20;;;;;;;4.98;43.37;98785.78;5065214;28;20032;-71
2021/01/21 10:46:25;;;;;;;1.30;0.20;;;;;;;6.61;40.01;98777.13;5065758;28;20344;-71
2021/01/21 10:48:51;;;;;;;3.88;0.22;;;;;;;5.47;41.33;98791.03;5046655;28;20075;-71
2021/01/21 10:51:16;;;;;;;8.88;0.75;;;;;;;5.52;41.00;98780.44;5028728;28;20615;-71
2021/01/21 10:53:42;;;;;;;3.42;0.60;;;;;;;5.52;41.15;98781.28;5043193;28;20037;-71
2021/01/21 10:56:07;;;;;;;3.45;0.30;;;;;;;6.16;40.03;98773.56;5065639;28;20036;-70
2021/01/21 10:58:33;;;;;;;4.93;0.25;;;;;;;5.80;40.35;98779.81;5046891;28;20109;-71
2021/01/21 11:00:59;;;;;;;4.85;0.32;;;;;;;5.35;41.05;98781.34;5047141;28;20047;-72
2021/01/21 11:03:24;;;;;;;1.85;0.10;;;;;;;6.08;40.25;98785.19;5047774;28;20060;-71
2021/01/21 11:05:50;;;;;;;1.65;0.32;;;;;;;5.47;40.81;98767.72;5045400;28;20071;-71
2021/01/21 11:08:16;;;;;;;4.32;1.17;;;;;;;5.90;40.71;98774.97;5044432;28;20039;-71
2021/01/21 11:10:42;;;;;;;2.67;0.70;;;;;;;6.16;39.67;98774.38;5031737;28;20028;-72
2021/01/21 11:13:08;;;;;;;1.52;0.20;;;;;;;6.33;39.63;98778.69;5064510;28;20039;-72
2021/01/21 11:15:34;;;;;;;2.45;0.25;;;;;;;5.96;40.05;98778.06;5043730;28;20025;-71
2021/01/21 11:18:00;;;;;;;5.47;0.32;;;;;;;5.64;41.25;98782.41;5046822;28;20036;-71
2021/01/21 11:20:26;;;;;;;2.15;0.10;;;;;;;6.09;40.27;98778.25;5045151;28;20044;-72
2021/01/21 11:22:52;;;;;;;5.90;0.25;;;;;;;5.70;40.72;98783.81;5063909;28;21188;-71
2021/01/21 11:25:18;;;;;;;3.35;0.45;;;;;;;4.36;43.61;98778.41;5061461;28;20048;-70
2021/01/21 11:27:43;;;;;;;1.00;0.17;;;;;;;5.17;42.04;98775.34;5061450;28;20035;-71
2021/01/21 11:30:11;;;;;;;5.40;0.20;;;;;;;4.33;43.84;98783.72;5061752;28;20036;-70
2021/01/21 11:32:37;;;;;;;5.22;0.45;;;;;;;6.04;40.88;98777.66;5046633;28;20044;-70
2021/01/21 11:35:03;;;;;;;4.55;0.68;;;;;;;6.08;40.28;98779.16;5066747;28;20028;-71
2021/01/21 11:37:29;;;;;;;4.57;0.35;;;;;;;6.20;40.19;98780.25;5062797;28;20064;-70
2021/01/21 11:39:55;;;;;;;4.78;0.25;;;;;;;5.31;42.43;98787.59;5067006;28;20044;-70
2021/01/21 11:42:20;;;;;;;4.10;0.60;;;;;;;5.16;42.24;98784.00;5051566;28;20035;-70
2021/01/21 11:44:46;;;;;;;4.10;0.60;;;;;;;5.25;42.17;98774.00;5048278;28;20498;-71
2021/01/21 11:47:12;;;;;;;5.18;0.30;;;;;;;4.55;43.85;98783.53;5032986;28;20078;-71
2021/01/21 11:49:37;;;;;;;3.13;0.43;;;;;;;5.05;42.69;98764.66;5029456;28;20854;-71
2021/01/21 11:52:04;;;;;;;3.60;0.75;;;;;;;5.17;43.54;98776.19;5032099;28;20020;-71
2021/01/21 11:54:29;;;;;;;7.00;1.23;;;;;;;5.32;41.75;98753.81;5047309;28;20028;-70
2021/01/21 11:56:55;;;;;;;6.63;1.10;;;;;;;5.76;41.48;98763.59;5030449;28;20029;-71
2021/01/21 11:59:21;;;;;;;8.38;0.63;;;;;;;5.76;41.54;98747.22;5043493;28;20065;-70
2021/01/21 12:01:46;;;;;;;2.67;0.28;;;;;;;4.97;43.03;98756.47;5045195;28;20029;-71